createdAt,value
2019-05-18T00:01:07.232Z,7.40
2019-05-18T00:03:35.674Z,7.60
2019-05-18T00:06:04.177Z,8.00
2019-05-18T00:08:32.633Z,7.20
2019-05-18T00:11:01.102Z,7.70
2019-05-18T00:13:29.557Z,8.10
2019-05-18T00:15:57.941Z,8.27
2019-05-18T00:18:26.336Z,7.67
2019-05-18T00:20:54.732Z,7.80
2019-05-18T00:23:23.176Z,7.87
2019-05-18T00:25:51.578Z,7.93
2019-05-18T00:28:19.992Z,7.77
2019-05-18T00:30:48.400Z,8.35
2019-05-18T00:33:16.800Z,8.03
2019-05-18T00:35:45.214Z,7.23
2019-05-18T00:38:13.634Z,7.73
2019-05-18T00:40:42.032Z,7.83
2019-05-18T00:43:10.466Z,7.30
2019-05-18T00:45:38.869Z,8.00
2019-05-18T00:48:07.291Z,7.73
2019-05-18T00:50:35.692Z,7.43
2019-05-18T00:53:04.077Z,7.53
2019-05-18T00:55:32.491Z,7.30
2019-05-18T00:58:00.902Z,7.43
2019-05-18T01:00:29.380Z,7.80
2019-05-18T01:02:57.789Z,7.97
2019-05-18T01:05:26.227Z,7.70
2019-05-18T01:07:54.737Z,7.87
2019-05-18T01:10:23.275Z,8.43
2019-05-18T01:12:51.696Z,7.60
2019-05-18T01:15:20.181Z,7.20
2019-05-18T01:17:56.800Z,7.40
2019-05-18T01:20:19.657Z,7.67
2019-05-18T01:22:48.069Z,7.50
2019-05-18T01:25:16.628Z,7.47
2019-05-18T01:27:45.006Z,7.47
2019-05-18T01:30:14.082Z,7.90
2019-05-18T01:32:42.468Z,7.87
2019-05-18T01:35:11.820Z,7.53
2019-05-18T01:37:40.207Z,7.50
2019-05-18T01:40:09.236Z,7.57
2019-05-18T01:42:37.692Z,8.38
2019-05-18T01:45:17.031Z,8.10
2019-05-18T01:47:38.781Z,7.77
2019-05-18T01:50:07.901Z,7.83
2019-05-18T01:52:36.352Z,8.00
2019-05-18T01:55:06.661Z,7.27
2019-05-18T01:57:35.044Z,7.43
2019-05-18T02:00:05.474Z,8.30
2019-05-18T02:02:33.812Z,7.90
2019-05-18T02:05:02.272Z,8.27
2019-05-18T02:07:30.635Z,8.23
2019-05-18T02:09:59.021Z,8.40
2019-05-18T02:12:27.398Z,8.60
2019-05-18T02:14:55.790Z,8.00
2019-05-18T02:17:24.171Z,9.25
2019-05-18T02:19:52.566Z,9.00
2019-05-18T02:22:20.942Z,8.20
2019-05-18T02:24:49.330Z,8.40
2019-05-18T02:27:17.723Z,8.63
2019-05-18T02:29:46.114Z,8.63
2019-05-18T02:32:14.521Z,8.60
2019-05-18T02:34:42.901Z,8.90
2019-05-18T02:37:11.287Z,9.23
2019-05-18T02:39:39.667Z,8.97
2019-05-18T02:42:08.123Z,8.87
2019-05-18T02:44:36.513Z,8.83
2019-05-18T02:47:04.913Z,9.23
2019-05-18T02:49:33.291Z,9.57
2019-05-18T02:52:01.754Z,9.90
2019-05-18T02:54:30.119Z,9.30
2019-05-18T02:56:58.536Z,9.73
2019-05-18T02:59:26.958Z,9.47
2019-05-18T03:01:55.350Z,10.68
2019-05-18T03:04:23.730Z,10.23
2019-05-18T03:06:52.126Z,9.70
2019-05-18T03:09:20.511Z,10.03
2019-05-18T03:11:48.902Z,9.40
2019-05-18T03:14:17.299Z,9.80
2019-05-18T03:16:45.722Z,9.53
2019-05-18T03:19:14.172Z,9.90
2019-05-18T03:21:42.558Z,9.67
2019-05-18T03:24:10.952Z,9.30
2019-05-18T03:26:39.331Z,10.00
2019-05-18T03:29:07.716Z,9.80
2019-05-18T03:31:36.132Z,10.30
2019-05-18T03:34:04.522Z,10.00
2019-05-18T03:36:33.228Z,10.17
2019-05-18T03:39:01.613Z,9.90
2019-05-18T03:41:30.005Z,10.47
2019-05-18T03:43:58.447Z,11.18
2019-05-18T03:46:26.837Z,10.30
2019-05-18T03:48:55.237Z,10.23
2019-05-18T03:51:23.614Z,10.43
2019-05-18T03:53:52.046Z,10.17
2019-05-18T03:56:20.482Z,10.60
2019-05-18T03:58:48.889Z,10.73
2019-05-18T04:01:17.262Z,9.97
2019-05-18T04:03:45.651Z,9.90
2019-05-18T04:06:14.045Z,10.07
2019-05-18T04:08:42.428Z,10.80
2019-05-18T04:11:10.821Z,11.17
2019-05-18T04:13:39.206Z,11.10
2019-05-18T04:16:07.679Z,10.60
2019-05-18T04:18:36.066Z,11.23
2019-05-18T04:21:07.181Z,11.17
2019-05-18T04:23:35.602Z,11.10
2019-05-18T04:26:03.982Z,11.20
2019-05-18T04:28:32.458Z,11.23
2019-05-18T04:31:00.846Z,11.17
2019-05-18T04:33:29.243Z,10.53
2019-05-18T04:35:57.638Z,11.17
2019-05-18T04:38:26.036Z,10.97
2019-05-18T04:40:54.447Z,10.77
2019-05-18T04:43:22.842Z,10.70
2019-05-18T04:45:51.233Z,10.70
2019-05-18T04:48:19.621Z,10.33
2019-05-18T04:50:48.039Z,10.67
2019-05-18T04:53:16.414Z,11.20
2019-05-18T04:55:44.796Z,10.40
2019-05-18T04:58:13.253Z,10.03
2019-05-18T05:00:41.642Z,10.33
2019-05-18T05:03:10.041Z,10.67
2019-05-18T05:05:38.447Z,10.50
2019-05-18T05:08:06.837Z,10.70
2019-05-18T05:10:35.229Z,10.70
2019-05-18T05:13:03.633Z,10.83
2019-05-18T05:15:32.029Z,10.63
2019-05-18T05:18:00.434Z,10.30
2019-05-18T05:20:28.822Z,10.60
2019-05-18T05:22:57.230Z,10.60
2019-05-18T05:25:25.623Z,10.40
2019-05-18T05:27:54.017Z,10.23
2019-05-18T05:30:22.410Z,10.03
2019-05-18T05:32:50.813Z,10.23
2019-05-18T05:35:19.341Z,9.43
2019-05-18T05:37:47.892Z,9.93
2019-05-18T05:40:16.561Z,9.30
2019-05-18T05:42:45.032Z,9.43
2019-05-18T05:45:13.555Z,9.33
2019-05-18T05:47:41.967Z,10.03
2019-05-18T05:50:11.222Z,9.70
2019-05-18T05:52:39.642Z,9.30
2019-05-18T05:55:09.363Z,8.63
2019-05-18T05:57:37.785Z,8.80
2019-05-18T06:00:07.907Z,8.70
2019-05-18T06:02:36.374Z,7.93
2019-05-18T06:05:07.118Z,8.30
2019-05-18T06:07:36.087Z,8.73
2019-05-18T06:10:06.522Z,8.20
2019-05-18T06:12:34.920Z,7.50
2019-05-18T06:15:04.668Z,7.20
2019-05-18T06:17:33.056Z,6.97
2019-05-18T06:20:01.470Z,7.23
2019-05-18T06:22:30.196Z,7.00
2019-05-18T06:24:58.715Z,6.33
2019-05-18T06:27:27.239Z,6.50
2019-05-18T06:29:55.637Z,6.57
2019-05-18T06:32:24.015Z,6.37
2019-05-18T06:34:52.411Z,6.20
2019-05-18T06:37:20.794Z,5.40
2019-05-18T06:39:49.266Z,5.30
2019-05-18T06:42:17.664Z,4.80
2019-05-18T06:44:46.045Z,4.67
2019-05-18T06:47:14.429Z,5.00
2019-05-18T06:49:42.815Z,5.17
2019-05-18T06:52:11.269Z,4.97
2019-05-18T06:54:39.657Z,5.03
2019-05-18T06:57:09.179Z,4.10
2019-05-18T06:59:38.149Z,4.53
2019-05-18T07:02:06.597Z,3.70
2019-05-18T07:04:34.991Z,3.53
2019-05-18T07:07:03.389Z,3.73
2019-05-18T07:09:31.774Z,3.77
2019-05-18T07:12:00.161Z,3.80
2019-05-18T07:14:28.548Z,3.70
2019-05-18T07:16:56.930Z,3.83
2019-05-18T07:19:25.328Z,3.40
2019-05-18T07:21:54.673Z,4.20
2019-05-18T07:24:23.073Z,3.80
2019-05-18T07:26:51.459Z,3.80
2019-05-18T07:29:19.854Z,3.63
2019-05-18T07:31:48.280Z,3.97
2019-05-18T07:34:16.722Z,4.20
2019-05-18T07:36:45.141Z,3.80
2019-05-18T07:39:13.540Z,3.03
2019-05-18T07:41:46.873Z,2.80
2019-05-18T07:44:12.384Z,2.85
2019-05-18T07:46:40.849Z,2.50
2019-05-18T07:49:09.267Z,2.90
2019-05-18T07:51:37.662Z,2.90
2019-05-18T07:54:06.173Z,2.90
2019-05-18T07:56:34.532Z,2.70
2019-05-18T07:59:02.928Z,2.40
2019-05-18T08:01:31.315Z,2.60
2019-05-18T08:03:59.734Z,2.80
2019-05-18T08:06:28.137Z,2.87
2019-05-18T08:08:56.557Z,2.90
2019-05-18T08:11:25.060Z,3.13
2019-05-18T08:13:53.473Z,3.30
2019-05-18T08:16:21.864Z,3.57
2019-05-18T08:18:50.282Z,3.23
2019-05-18T08:21:18.731Z,3.00
2019-05-18T08:23:47.115Z,2.87
2019-05-18T08:26:15.533Z,3.20
2019-05-18T08:28:43.974Z,3.10
2019-05-18T08:31:12.367Z,3.20
2019-05-18T08:33:40.768Z,3.10
2019-05-18T08:36:09.168Z,3.67
2019-05-18T08:38:37.577Z,3.40
2019-05-18T08:41:06.008Z,3.03
2019-05-18T08:43:34.412Z,3.00
2019-05-18T08:46:02.857Z,3.50
2019-05-18T08:48:31.233Z,3.70
2019-05-18T08:50:59.682Z,3.30
2019-05-18T08:53:28.100Z,3.40
2019-05-18T08:55:56.485Z,3.33
2019-05-18T08:58:24.875Z,3.00
2019-05-18T09:00:53.252Z,2.80
2019-05-18T09:03:21.638Z,3.17
2019-05-18T09:05:50.033Z,2.70
2019-05-18T09:08:18.422Z,2.80
2019-05-18T09:10:46.808Z,3.03
2019-05-18T09:13:15.207Z,3.20
2019-05-18T09:15:44.692Z,3.50
2019-05-18T09:18:13.152Z,3.43
2019-05-18T09:20:41.542Z,3.30
2019-05-18T09:23:09.920Z,2.90
2019-05-18T09:25:38.308Z,3.30
2019-05-18T09:28:06.691Z,3.30
2019-05-18T09:30:35.096Z,3.30
2019-05-18T09:33:03.480Z,3.00
2019-05-18T09:35:31.879Z,3.00
2019-05-18T09:38:00.263Z,3.50
2019-05-18T09:40:28.662Z,3.20
2019-05-18T09:42:57.053Z,3.10
2019-05-18T09:45:25.543Z,3.00
2019-05-18T09:47:53.959Z,2.70
2019-05-18T09:50:22.414Z,2.73
2019-05-18T09:52:51.770Z,2.50
2019-05-18T09:55:20.298Z,2.80
2019-05-18T09:57:48.706Z,3.13
2019-05-18T10:00:18.700Z,3.20
2019-05-18T10:02:47.088Z,3.20
2019-05-18T10:05:17.031Z,3.60
2019-05-18T10:07:45.410Z,3.17
2019-05-18T10:10:14.824Z,3.17
2019-05-18T10:12:43.215Z,2.85
2019-05-18T10:15:11.839Z,3.10
2019-05-18T10:17:40.232Z,2.73
2019-05-18T10:20:09.306Z,3.10
2019-05-18T10:22:51.230Z,2.80
2019-05-18T10:25:08.207Z,2.93
2019-05-18T10:27:36.616Z,2.70
2019-05-18T10:30:06.443Z,2.90
2019-05-18T10:32:34.870Z,2.60
2019-05-18T10:35:03.555Z,2.47
2019-05-18T10:37:31.997Z,2.30
2019-05-18T10:40:00.412Z,2.73
2019-05-18T10:42:29.200Z,2.70
2019-05-18T10:44:57.955Z,2.90
2019-05-18T10:47:26.393Z,2.80
2019-05-18T10:49:54.783Z,2.70
2019-05-18T10:52:23.241Z,2.93
2019-05-18T10:54:51.641Z,2.80
2019-05-18T10:57:20.023Z,3.27
2019-05-18T10:59:48.993Z,2.77
2019-05-18T11:02:17.384Z,3.00
2019-05-18T11:04:45.872Z,2.97
2019-05-18T11:07:14.337Z,2.40
2019-05-18T11:09:42.764Z,2.80
2019-05-18T11:12:11.200Z,2.80
2019-05-18T11:14:39.668Z,2.80
2019-05-18T11:17:08.099Z,3.30
2019-05-18T11:19:36.511Z,2.80
2019-05-18T11:22:04.916Z,2.90
2019-05-18T11:24:33.312Z,2.80
2019-05-18T11:27:01.748Z,2.60
2019-05-18T11:29:30.418Z,2.53
2019-05-18T11:31:58.815Z,2.70
2019-05-18T11:34:27.223Z,3.10
2019-05-18T11:36:55.637Z,2.87
2019-05-18T11:39:24.014Z,3.03
2019-05-18T11:41:52.441Z,2.90
2019-05-18T11:44:20.812Z,2.93
2019-05-18T11:46:49.193Z,2.93
2019-05-18T11:49:17.580Z,3.03
2019-05-18T11:51:45.967Z,2.50
2019-05-18T11:54:14.357Z,2.40
2019-05-18T11:56:42.745Z,2.77
2019-05-18T11:59:11.131Z,2.97
2019-05-18T12:01:39.557Z,2.47
2019-05-18T12:04:07.932Z,6.83
2019-05-18T12:06:36.328Z,4.80
2019-05-18T12:09:05.915Z,3.40
2019-05-18T12:11:34.297Z,2.97
2019-05-18T12:14:02.727Z,2.40
2019-05-18T12:16:31.097Z,2.50
2019-05-18T12:18:59.483Z,2.60
2019-05-18T12:21:27.876Z,2.60
2019-05-18T12:23:56.267Z,2.57
2019-05-18T12:26:24.662Z,2.10
2019-05-18T12:28:53.077Z,2.13
2019-05-18T12:31:21.447Z,2.10
2019-05-18T12:33:49.833Z,2.30
2019-05-18T12:36:18.226Z,2.10
2019-05-18T12:38:46.608Z,1.90
2019-05-18T12:41:16.643Z,1.93
2019-05-18T12:43:45.027Z,2.00
2019-05-18T12:46:13.486Z,2.30
2019-05-18T12:48:41.871Z,1.87
2019-05-18T12:51:10.263Z,1.70
2019-05-18T12:53:38.655Z,2.07
2019-05-18T12:56:07.178Z,1.90
2019-05-18T12:58:37.575Z,2.10
2019-05-18T13:01:05.689Z,2.00
2019-05-18T13:03:34.055Z,1.60
2019-05-18T13:06:02.461Z,1.90
2019-05-18T13:08:30.828Z,1.82
2019-05-18T13:10:59.212Z,1.83
2019-05-18T13:13:27.607Z,1.60
2019-05-18T13:15:55.980Z,1.80
2019-05-18T13:18:24.374Z,1.70
2019-05-18T13:20:52.835Z,1.70
2019-05-18T13:23:21.222Z,1.87
2019-05-18T13:25:49.613Z,1.60
2019-05-18T13:28:18.000Z,1.80
2019-05-18T13:30:46.400Z,1.75
2019-05-18T13:33:14.846Z,1.80
2019-05-18T13:35:45.511Z,1.77
2019-05-18T13:38:14.306Z,1.80
2019-05-18T13:40:42.931Z,1.80
2019-05-18T13:43:11.318Z,1.70
2019-05-18T13:45:39.698Z,1.80
2019-05-18T13:48:08.083Z,1.60
2019-05-18T13:50:36.463Z,2.00
2019-05-18T13:53:04.869Z,1.90
2019-05-18T13:55:33.250Z,1.90
2019-05-18T13:58:01.638Z,1.80
2019-05-18T14:00:30.020Z,1.60
2019-05-18T14:02:58.476Z,2.00
2019-05-18T14:05:26.869Z,1.80
2019-05-18T14:07:55.247Z,1.67
2019-05-18T14:10:24.144Z,1.70
2019-05-18T14:12:52.599Z,1.63
2019-05-18T14:15:22.934Z,1.60
2019-05-18T14:17:51.226Z,1.70
2019-05-18T14:20:19.770Z,1.70
2019-05-18T14:22:48.153Z,2.33
2019-05-18T14:25:19.989Z,1.50
2019-05-18T14:27:48.654Z,1.50
2019-05-18T14:30:18.640Z,1.60
2019-05-18T14:32:47.032Z,1.60
2019-05-18T14:35:15.490Z,1.60
2019-05-18T14:37:43.867Z,1.50
2019-05-18T14:40:13.648Z,1.50
2019-05-18T14:42:42.029Z,1.33
2019-05-18T14:45:12.154Z,1.50
2019-05-18T14:47:40.656Z,1.70
2019-05-18T14:50:10.579Z,1.63
2019-05-18T14:52:38.975Z,1.40
2019-05-18T14:55:07.723Z,1.43
2019-05-18T14:57:36.185Z,1.30
2019-05-18T15:00:06.197Z,1.47
2019-05-18T15:02:34.600Z,1.40
2019-05-18T15:05:03.058Z,1.50
2019-05-18T15:07:31.447Z,1.33
2019-05-18T15:09:59.832Z,1.40
2019-05-18T15:12:28.226Z,2.35
2019-05-18T15:14:56.616Z,3.67
2019-05-18T15:17:25.091Z,3.33
2019-05-18T15:19:53.558Z,4.00
2019-05-18T15:22:21.949Z,4.93
2019-05-18T15:24:50.609Z,5.07
2019-05-18T15:27:19.004Z,4.70
2019-05-18T15:29:47.384Z,4.80
2019-05-18T15:32:15.789Z,4.80
2019-05-18T15:34:44.163Z,4.53
2019-05-18T15:37:12.562Z,5.27
2019-05-18T15:39:40.946Z,5.23
2019-05-18T15:42:09.361Z,5.30
2019-05-18T15:44:37.736Z,5.20
2019-05-18T15:47:06.126Z,5.20
2019-05-18T15:49:34.677Z,5.00
2019-05-18T15:52:03.088Z,5.57
2019-05-18T15:54:31.481Z,6.00
2019-05-18T15:56:59.898Z,5.13
2019-05-18T15:59:28.286Z,5.67
2019-05-18T16:01:56.658Z,5.20
2019-05-18T16:04:25.094Z,5.50
2019-05-18T16:06:53.475Z,4.87
2019-05-18T16:09:21.925Z,2.70
2019-05-18T16:11:50.308Z,2.50
2019-05-18T16:14:18.693Z,4.50
2019-05-18T16:16:47.388Z,2.50
2019-05-18T16:19:16.147Z,3.83
2019-05-18T16:21:44.546Z,4.73
2019-05-18T16:24:12.960Z,4.73
2019-05-18T16:26:41.362Z,1.90
2019-05-18T16:29:09.747Z,1.80
2019-05-18T16:31:38.141Z,1.67
2019-05-18T16:34:06.539Z,1.50
2019-05-18T16:36:34.923Z,1.40
2019-05-18T16:39:04.011Z,1.40
2019-05-18T16:41:32.378Z,1.40
2019-05-18T16:44:00.751Z,1.70
2019-05-18T16:46:29.199Z,1.80
2019-05-18T16:48:57.588Z,1.50
2019-05-18T16:51:25.982Z,1.60
2019-05-18T16:53:54.749Z,1.50
2019-05-18T16:56:34.605Z,1.50
2019-05-18T16:58:53.306Z,1.60
2019-05-18T17:01:21.698Z,1.60
2019-05-18T17:03:50.076Z,1.70
2019-05-18T17:06:18.593Z,1.57
2019-05-18T17:08:47.309Z,2.10
2019-05-18T17:11:15.693Z,4.17
2019-05-18T17:13:44.086Z,4.07
2019-05-18T17:16:12.643Z,4.83
2019-05-18T17:18:41.015Z,4.90
2019-05-18T17:21:09.404Z,4.53
2019-05-18T17:23:37.797Z,4.20
2019-05-18T17:26:06.245Z,4.60
2019-05-18T17:28:34.769Z,4.53
2019-05-18T17:31:03.190Z,4.80
2019-05-18T17:33:31.553Z,4.40
2019-05-18T17:36:00.797Z,5.00
2019-05-18T17:38:29.206Z,4.57
2019-05-18T17:40:57.590Z,4.80
2019-05-18T17:43:26.007Z,4.90
2019-05-18T17:45:54.452Z,4.67
2019-05-18T17:48:22.865Z,5.30
2019-05-18T17:50:51.255Z,7.87
2019-05-18T17:53:19.652Z,5.93
2019-05-18T17:55:48.040Z,5.80
2019-05-18T17:58:16.418Z,7.00
2019-05-18T18:00:44.876Z,5.07
2019-05-18T18:03:13.256Z,4.77
2019-05-18T18:05:41.655Z,4.63
2019-05-18T18:08:10.045Z,11.63
2019-05-18T18:10:38.438Z,6.23
2019-05-18T18:13:09.514Z,6.67
2019-05-18T18:15:37.014Z,5.03
2019-05-18T18:18:05.422Z,5.63
2019-05-18T18:20:33.786Z,5.40
2019-05-18T18:23:02.181Z,5.50
2019-05-18T18:25:30.562Z,4.80
2019-05-18T18:27:58.950Z,6.37
2019-05-18T18:30:27.341Z,8.00
2019-05-18T18:32:55.728Z,6.67
2019-05-18T18:35:24.118Z,5.00
2019-05-18T18:37:52.546Z,4.77
2019-05-18T18:40:20.936Z,4.60
2019-05-18T18:42:50.081Z,7.00
2019-05-18T18:45:18.719Z,6.10
2019-05-18T18:47:47.100Z,5.70
2019-05-18T18:50:15.622Z,5.97
2019-05-18T18:52:44.005Z,4.87
2019-05-18T18:55:12.607Z,4.93
2019-05-18T18:57:42.224Z,5.00
2019-05-18T19:00:11.907Z,5.20
2019-05-18T19:02:40.323Z,4.40
2019-05-18T19:05:09.834Z,4.80
2019-05-18T19:07:38.287Z,4.70
2019-05-18T19:10:07.815Z,4.83
2019-05-18T19:12:36.344Z,4.40
2019-05-18T19:15:07.775Z,4.00
2019-05-18T19:17:36.150Z,4.63
2019-05-18T19:20:05.878Z,3.93
2019-05-18T19:22:34.268Z,3.90
2019-05-18T19:25:02.715Z,4.30
2019-05-18T19:27:31.194Z,4.53
2019-05-18T19:29:59.649Z,4.00
2019-05-18T19:32:28.067Z,4.20
2019-05-18T19:34:56.452Z,4.40
2019-05-18T19:37:26.478Z,4.50
2019-05-18T19:39:55.030Z,4.40
2019-05-18T19:42:23.483Z,4.83
2019-05-18T19:44:51.945Z,4.70
2019-05-18T19:47:20.338Z,4.70
2019-05-18T19:49:48.729Z,4.77
2019-05-18T19:52:17.188Z,5.10
2019-05-18T19:54:46.490Z,4.37
2019-05-18T19:57:14.913Z,5.10
2019-05-18T19:59:47.151Z,4.85
2019-05-18T20:02:18.328Z,5.13
2019-05-18T20:05:03.903Z,4.83
2019-05-18T20:07:15.845Z,5.20
2019-05-18T20:09:47.227Z,5.17
2019-05-18T20:12:15.621Z,5.13
2019-05-18T20:14:44.015Z,5.53
2019-05-18T20:17:12.429Z,5.60
2019-05-18T20:19:40.801Z,5.40
2019-05-18T20:22:09.210Z,5.57
2019-05-18T20:24:37.605Z,6.03
2019-05-18T20:27:06.066Z,6.00
2019-05-18T20:29:34.465Z,5.50
2019-05-18T20:32:02.880Z,5.17
2019-05-18T20:34:31.259Z,5.73
2019-05-18T20:36:59.645Z,5.80
2019-05-18T20:39:28.116Z,5.30
2019-05-18T20:41:56.479Z,5.40
2019-05-18T20:44:24.832Z,6.03
2019-05-18T20:46:53.213Z,5.70
2019-05-18T20:49:21.608Z,5.30
2019-05-18T20:51:50.005Z,5.80
2019-05-18T20:54:18.395Z,5.70
2019-05-18T20:56:46.794Z,5.67
2019-05-18T20:59:15.182Z,5.50
2019-05-18T21:01:43.659Z,5.53
2019-05-18T21:04:12.036Z,5.57
2019-05-18T21:06:40.433Z,6.07
2019-05-18T21:09:08.816Z,5.67
2019-05-18T21:11:37.376Z,6.30
2019-05-18T21:14:05.844Z,6.33
2019-05-18T21:16:34.248Z,6.37
2019-05-18T21:19:02.648Z,5.83
2019-05-18T21:21:31.083Z,6.60
2019-05-18T21:23:59.475Z,6.30
2019-05-18T21:26:27.877Z,6.70
2019-05-18T21:29:00.478Z,6.20
2019-05-18T21:31:26.410Z,7.20
2019-05-18T21:33:54.816Z,7.03
2019-05-18T21:36:23.207Z,7.03
2019-05-18T21:38:53.668Z,6.60
2019-05-18T21:41:22.056Z,7.27
2019-05-18T21:43:50.444Z,6.97
2019-05-18T21:46:18.831Z,8.20
2019-05-18T21:48:47.221Z,7.70
2019-05-18T21:51:15.611Z,7.93
2019-05-18T21:53:44.002Z,7.77
2019-05-18T21:56:12.398Z,7.73
2019-05-18T21:58:40.778Z,7.92
2019-05-18T22:01:09.235Z,8.17
2019-05-18T22:03:37.620Z,8.53
2019-05-18T22:06:06.021Z,8.03
2019-05-18T22:08:35.364Z,8.20
2019-05-18T22:11:03.729Z,8.30
2019-05-18T22:13:32.131Z,8.37
2019-05-18T22:16:00.526Z,8.13
2019-05-18T22:18:28.912Z,9.07
2019-05-18T22:20:57.302Z,8.90
2019-05-18T22:23:25.695Z,9.18
2019-05-18T22:25:56.963Z,8.83
2019-05-18T22:28:24.253Z,9.33
2019-05-18T22:30:52.642Z,9.43
2019-05-18T22:33:21.031Z,9.23
2019-05-18T22:35:49.423Z,9.60
2019-05-18T22:38:17.826Z,9.73
2019-05-18T22:40:46.221Z,9.83
2019-05-18T22:43:14.619Z,10.33
2019-05-18T22:45:43.023Z,10.13
2019-05-18T22:48:11.418Z,10.50
2019-05-18T22:50:39.818Z,10.27
2019-05-18T22:53:08.208Z,10.30
2019-05-18T22:55:36.605Z,10.40
2019-05-18T22:58:06.504Z,10.23
2019-05-18T23:00:35.163Z,9.80
2019-05-18T23:03:03.564Z,9.73
2019-05-18T23:05:31.950Z,9.50
2019-05-18T23:08:00.350Z,10.63
2019-05-18T23:10:28.745Z,10.17
2019-05-18T23:12:57.146Z,10.03
2019-05-18T23:15:25.534Z,9.97
2019-05-18T23:17:53.925Z,8.77
2019-05-18T23:20:22.327Z,9.73
2019-05-18T23:22:50.736Z,9.60
2019-05-18T23:25:19.125Z,10.27
2019-05-18T23:27:47.524Z,10.27
2019-05-18T23:30:16.157Z,10.27
2019-05-18T23:32:44.567Z,10.33
2019-05-18T23:35:13.048Z,10.50
2019-05-18T23:37:41.532Z,10.67
2019-05-18T23:40:10.105Z,10.77
2019-05-18T23:42:38.487Z,10.33
2019-05-18T23:45:07.438Z,10.88
2019-05-18T23:47:35.935Z,10.23
2019-05-18T23:50:05.705Z,11.00
2019-05-18T23:52:34.139Z,10.27
2019-05-18T23:55:02.529Z,10.10
2019-05-18T23:57:30.931Z,10.40
2019-05-18T23:59:59.309Z,10.00
